Time;durP1;ratioP1;P1;durP2;ratioP2;P2;SDS_P1;SDS_P2;PMS_P1;PMS_P2;Temp;Humidity;BMP_temperature;BMP_pressure;BME280_temperature;BME280_humidity;BME280_pressure;Samples;Min_cycle;Max_cycle;Signal;HPM_P1;HPM_P2
2023/10/08 00:01:18;;;;;;;17.88;10.50;;;;;;;;;;5048297;28;20372;-79
2023/10/08 00:03:50;;;;;;;19.88;11.02;;;;;;;;;;5042447;28;20033;-75
2023/10/08 00:06:19;;;;;;;19.33;10.50;;;;;;;;;;5053774;28;20016;-77
2023/10/08 00:08:45;;;;;;;19.95;9.93;;;;;;;;;;5047318;28;20115;-75
2023/10/08 00:11:11;;;;;;;17.40;10.07;;;;;;;;;;5058105;28;20016;-75
2023/10/08 00:13:43;;;;;;;20.02;10.65;;;;;;;;;;5031053;28;20260;-75
2023/10/08 00:16:16;;;;;;;18.77;9.80;;;;;;;;;;5040904;28;20641;-78
2023/10/08 00:18:48;;;;;;;17.42;9.57;;;;;;;;;;5043697;28;20017;-75
2023/10/08 00:23:42;;;;;;;17.17;9.07;;;;;;;;;;5032497;28;20024;-75
2023/10/08 00:26:09;;;;;;;16.30;8.98;;;;;;;;;;5041283;28;20020;-78
2023/10/08 00:28:35;;;;;;;16.20;9.07;;;;;;;;;;5039152;28;20094;-75
2023/10/08 00:31:12;;;;;;;17.65;8.85;;;;;;;;;;5034929;28;20751;-78
2023/10/08 00:33:43;;;;;;;15.70;8.32;;;;;;;;;;5046145;28;20032;-76
2023/10/08 00:36:18;;;;;;;14.82;8.30;;;;;;;;;;5035139;28;20013;-79
2023/10/08 00:38:45;;;;;;;16.20;8.35;;;;;;;;;;5041800;28;20028;-75
2023/10/08 00:41:19;;;;;;;17.40;8.43;;;;;;;;;;5055773;28;20036;-78
2023/10/08 00:43:47;;;;;;;16.35;8.68;;;;;;;;;;5044043;28;20500;-76
2023/10/08 00:46:22;;;;;;;16.92;9.32;;;;;;;;;;5048094;28;20040;-79
2023/10/08 00:48:49;;;;;;;16.10;8.57;;;;;;;;;;5052854;28;20382;-76
2023/10/08 00:53:58;;;;;;;18.10;9.00;;;;;;;;;;5049204;28;20063;-77
2023/10/08 00:56:46;;;;;;;16.33;8.55;;;;;;;;;;5065725;28;20020;-80
2023/10/08 00:59:15;;;;;;;20.13;9.15;;;;;;;;;;5048056;28;20312;-80
2023/10/08 01:01:59;;;;;;;16.23;9.10;;;;;;;;;;5053380;28;20040;-76
2023/10/08 01:04:28;;;;;;;17.67;8.60;;;;;;;;;;5050920;28;20031;-81
2023/10/08 01:06:58;;;;;;;15.10;8.40;;;;;;;;;;5054587;28;20029;-77
2023/10/08 01:09:31;;;;;;;16.17;8.63;;;;;;;;;;5054425;28;20032;-77
2023/10/08 01:14:55;;;;;;;16.48;8.82;;;;;;;;;;5050241;28;20048;-77
2023/10/08 01:17:25;;;;;;;16.35;9.00;;;;;;;;;;5061715;28;20613;-77
2023/10/08 01:19:54;;;;;;;17.35;9.75;;;;;;;;;;5054313;28;20305;-76
2023/10/08 01:22:21;;;;;;;16.30;9.32;;;;;;;;;;5056126;28;20024;-77
2023/10/08 01:24:48;;;;;;;17.77;10.30;;;;;;;;;;5040715;28;20031;-76
2023/10/08 01:27:21;;;;;;;20.25;11.02;;;;;;;;;;5059298;28;20123;-76
2023/10/08 01:29:47;;;;;;;20.15;10.95;;;;;;;;;;5045817;28;20024;-76
2023/10/08 01:32:16;;;;;;;17.88;9.80;;;;;;;;;;5050049;28;20029;-77
2023/10/08 01:34:45;;;;;;;19.55;9.52;;;;;;;;;;5050553;28;20098;-76
2023/10/08 01:37:20;;;;;;;16.65;9.07;;;;;;;;;;5040486;28;20058;-76
2023/10/08 01:39:48;;;;;;;16.55;9.13;;;;;;;;;;5047506;28;20016;-77
2023/10/08 01:42:17;;;;;;;14.77;8.75;;;;;;;;;;5051725;28;20120;-77
2023/10/08 01:44:47;;;;;;;17.90;9.70;;;;;;;;;;5044427;28;20106;-75
2023/10/08 01:47:14;;;;;;;16.58;8.82;;;;;;;;;;5043398;28;20028;-79
2023/10/08 01:49:39;;;;;;;16.80;9.32;;;;;;;;;;5047078;28;20040;-78
2023/10/08 01:52:12;;;;;;;21.67;9.15;;;;;;;;;;5045512;28;20023;-77
2023/10/08 01:54:38;;;;;;;16.88;9.40;;;;;;;;;;5049451;28;20024;-75
2023/10/08 01:57:04;;;;;;;19.05;9.60;;;;;;;;;;5044702;28;20170;-78
2023/10/08 01:59:32;;;;;;;16.63;9.32;;;;;;;;;;5048613;28;20033;-78
2023/10/08 02:01:58;;;;;;;18.92;9.27;;;;;;;;;;5047146;28;20096;-77
2023/10/08 02:04:23;;;;;;;17.13;9.43;;;;;;;;;;5050791;28;20115;-77
2023/10/08 02:06:48;;;;;;;18.85;9.43;;;;;;;;;;5045936;28;20079;-77
2023/10/08 02:09:15;;;;;;;15.30;8.57;;;;;;;;;;5048597;28;20126;-77
2023/10/08 02:11:45;;;;;;;18.13;8.93;;;;;;;;;;5039027;28;20433;-77
2023/10/08 02:14:11;;;;;;;14.90;8.45;;;;;;;;;;5049971;28;20066;-77
2023/10/08 02:16:37;;;;;;;15.82;8.68;;;;;;;;;;5049719;28;20808;-76
2023/10/08 02:19:03;;;;;;;17.48;9.02;;;;;;;;;;5052152;28;20649;-77
2023/10/08 02:21:29;;;;;;;19.92;9.20;;;;;;;;;;5049957;28;20016;-78
2023/10/08 02:23:54;;;;;;;19.45;9.50;;;;;;;;;;5044631;28;20032;-79
2023/10/08 02:26:19;;;;;;;17.42;9.98;;;;;;;;;;5051767;28;20025;-78
2023/10/08 02:28:45;;;;;;;17.13;9.10;;;;;;;;;;5047017;28;20480;-76
2023/10/08 02:31:10;;;;;;;16.27;9.27;;;;;;;;;;5042700;28;20031;-77
2023/10/08 02:33:35;;;;;;;15.50;8.75;;;;;;;;;;5046376;28;20404;-76
2023/10/08 02:36:04;;;;;;;17.60;9.05;;;;;;;;;;5047996;28;20754;-78
2023/10/08 02:38:29;;;;;;;15.30;8.63;;;;;;;;;;5048915;28;20405;-79
2023/10/08 02:40:56;;;;;;;15.07;8.40;;;;;;;;;;5037892;28;20489;-76
2023/10/08 02:43:23;;;;;;;14.30;8.98;;;;;;;;;;5058852;28;20024;-79
2023/10/08 02:45:49;;;;;;;13.95;8.48;;;;;;;;;;5046552;28;20036;-75
2023/10/08 02:48:15;;;;;;;15.90;8.13;;;;;;;;;;5042938;28;20040;-77
2023/10/08 02:50:41;;;;;;;20.00;8.90;;;;;;;;;;5052082;28;20024;-77
2023/10/08 02:53:10;;;;;;;14.18;8.15;;;;;;;;;;5045637;28;20415;-78
2023/10/08 02:55:43;;;;;;;17.10;8.15;;;;;;;;;;5051308;28;20009;-78
2023/10/08 02:58:15;;;;;;;14.63;8.23;;;;;;;;;;5051256;28;20021;-78
2023/10/08 03:00:46;;;;;;;14.82;8.20;;;;;;;;;;5051305;28;20385;-77
2023/10/08 03:03:16;;;;;;;17.58;8.50;;;;;;;;;;5047630;28;20040;-77
2023/10/08 03:05:51;;;;;;;15.32;8.07;;;;;;;;;;5050108;28;20058;-75
2023/10/08 03:08:20;;;;;;;15.57;8.10;;;;;;;;;;5055577;28;20048;-77
2023/10/08 03:10:50;;;;;;;15.32;8.18;;;;;;;;;;5042074;28;20021;-76
2023/10/08 03:13:17;;;;;;;12.70;7.40;;;;;;;;;;5051207;28;20027;-79
2023/10/08 03:16:08;;;;;;;14.63;8.15;;;;;;;;;;5056527;28;20377;-77
2023/10/08 03:18:36;;;;;;;18.10;8.10;;;;;;;;;;5053006;28;20029;-77
2023/10/08 03:21:20;;;;;;;14.10;7.88;;;;;;;;;;5049452;28;20020;-77
2023/10/08 03:23:51;;;;;;;15.07;7.90;;;;;;;;;;5046733;28;20025;-77
2023/10/08 03:28:59;;;;;;;12.88;8.02;;;;;;;;;;5039811;28;20032;-78
2023/10/08 03:34:19;;;;;;;12.15;7.35;;;;;;;;;;5043460;28;20044;-78
2023/10/08 03:36:47;;;;;;;14.18;7.45;;;;;;;;;;5051886;28;20027;-77
2023/10/08 03:39:14;;;;;;;14.70;7.53;;;;;;;;;;5052329;28;20329;-78
2023/10/08 03:41:42;;;;;;;13.52;7.22;;;;;;;;;;5054284;28;20052;-77
2023/10/08 03:44:16;;;;;;;12.68;7.72;;;;;;;;;;5040184;28;20087;-80
2023/10/08 03:46:46;;;;;;;13.70;7.57;;;;;;;;;;5053629;28;20029;-76
2023/10/08 03:49:25;;;;;;;16.17;7.75;;;;;;;;;;5050181;28;20033;-75
2023/10/08 03:51:53;;;;;;;17.63;7.60;;;;;;;;;;5046485;28;20055;-74
2023/10/08 03:54:24;;;;;;;14.77;7.55;;;;;;;;;;5051040;28;20043;-75
2023/10/08 03:56:51;;;;;;;14.95;7.72;;;;;;;;;;5048978;28;20032;-75
2023/10/08 03:59:31;;;;;;;13.73;7.32;;;;;;;;;;5052896;28;20032;-74
2023/10/08 04:02:02;;;;;;;17.83;7.68;;;;;;;;;;5051677;28;20056;-78
2023/10/08 04:12:43;;;;;;;12.77;7.40;;;;;;;;;;5039935;28;20239;-76
2023/10/08 04:15:12;;;;;;;14.80;8.27;;;;;;;;;;5045659;28;20029;-79
2023/10/08 04:17:43;;;;;;;14.65;7.65;;;;;;;;;;5054845;28;20489;-78
2023/10/08 04:20:33;;;;;;;13.75;7.63;;;;;;;;;;5050871;28;20061;-80
2023/10/08 04:23:03;;;;;;;13.65;7.50;;;;;;;;;;5048922;28;20024;-81
2023/10/08 04:25:29;;;;;;;14.23;7.68;;;;;;;;;;5048053;28;20016;-80
2023/10/08 04:27:58;;;;;;;14.50;7.72;;;;;;;;;;5044759;28;20070;-76
2023/10/08 04:30:32;;;;;;;15.57;8.00;;;;;;;;;;5049575;28;20021;-79
2023/10/08 04:33:11;;;;;;;17.52;7.90;;;;;;;;;;5045105;28;20032;-77
2023/10/08 04:35:47;;;;;;;14.82;7.90;;;;;;;;;;5053982;28;20025;-77
2023/10/08 04:38:13;;;;;;;13.18;7.18;;;;;;;;;;5052520;28;20052;-79
2023/10/08 04:40:47;;;;;;;14.27;7.72;;;;;;;;;;5048538;28;20052;-78
2023/10/08 04:43:15;;;;;;;14.98;7.60;;;;;;;;;;5043335;28;20028;-76
2023/10/08 04:45:41;;;;;;;13.55;7.47;;;;;;;;;;5054579;28;20032;-76
2023/10/08 04:48:09;;;;;;;14.75;7.40;;;;;;;;;;5045572;28;20161;-77
2023/10/08 04:50:37;;;;;;;12.02;7.43;;;;;;;;;;5045739;28;20033;-76
2023/10/08 04:53:07;;;;;;;14.52;7.68;;;;;;;;;;5046942;28;20103;-78
2023/10/08 04:55:34;;;;;;;15.23;7.72;;;;;;;;;;5047614;28;20048;-77
2023/10/08 04:58:02;;;;;;;13.25;7.45;;;;;;;;;;5048165;28;20035;-79
2023/10/08 05:03:14;;;;;;;14.13;7.20;;;;;;;;;;5046639;28;20124;-77
2023/10/08 05:06:07;;;;;;;12.23;7.22;;;;;;;;;;5036587;28;20017;-76
2023/10/08 05:08:44;;;;;;;12.60;7.47;;;;;;;;;;5047564;28;20530;-76
2023/10/08 05:11:24;;;;;;;14.65;7.32;;;;;;;;;;5042047;28;20028;-80
2023/10/08 05:14:01;;;;;;;11.93;7.13;;;;;;;;;;5033267;28;20013;-77
2023/10/08 05:17:00;;;;;;;12.82;7.30;;;;;;;;;;5047671;28;20031;-78
2023/10/08 05:19:48;;;;;;;16.73;7.30;;;;;;;;;;5052498;28;20663;-80
2023/10/08 05:22:29;;;;;;;13.93;7.30;;;;;;;;;;5048366;28;20025;-77
2023/10/08 05:28:08;;;;;;;;;;;;;;;;;;5053493;28;20034;-77
2023/10/08 05:30:53;;;;;;;13.05;6.95;;;;;;;;;;5068322;28;19912;-77
2023/10/08 05:33:44;;;;;;;14.63;7.20;;;;;;;;;;5040264;28;20052;-79
2023/10/08 05:36:18;;;;;;;14.27;7.40;;;;;;;;;;5047152;28;20829;-79
2023/10/08 05:39:00;;;;;;;13.77;7.20;;;;;;;;;;5050720;28;20028;-76
2023/10/08 05:41:30;;;;;;;12.63;7.18;;;;;;;;;;5041058;28;20028;-80
2023/10/08 05:44:13;;;;;;;14.13;7.22;;;;;;;;;;5043590;28;20028;-80
2023/10/08 05:46:46;;;;;;;12.65;6.97;;;;;;;;;;5050237;28;20579;-80
2023/10/08 05:54:35;;;;;;;12.95;7.05;;;;;;;;;;5056331;28;20025;-78
2023/10/08 05:57:14;;;;;;;14.25;7.35;;;;;;;;;;5046625;28;20024;-78
2023/10/08 06:13:10;;;;;;;14.85;7.85;;;;;;;;;;5038620;28;20397;-77
2023/10/08 06:16:31;;;;;;;13.25;6.97;;;;;;;;;;5030733;28;20412;-77
2023/10/08 06:18:29;;;;;;;13.25;7.00;;;;;;;;;;5039491;28;20683;-78
2023/10/08 06:20:58;;;;;;;14.00;7.20;;;;;;;;;;5042082;28;20024;-76
2023/10/08 06:23:31;;;;;;;12.57;7.05;;;;;;;;;;5049890;28;20036;-77
2023/10/08 06:25:58;;;;;;;13.32;7.38;;;;;;;;;;5038991;28;20197;-77
2023/10/08 06:28:25;;;;;;;13.13;6.55;;;;;;;;;;5050318;28;20020;-77
2023/10/08 06:30:56;;;;;;;14.43;7.18;;;;;;;;;;5045063;28;20112;-77
2023/10/08 06:33:22;;;;;;;13.80;7.28;;;;;;;;;;5051691;28;20058;-77
2023/10/08 06:36:13;;;;;;;13.05;7.30;;;;;;;;;;5050762;28;20212;-76
2023/10/08 06:38:49;;;;;;;14.57;7.30;;;;;;;;;;5046376;28;20025;-77
2023/10/08 06:41:17;;;;;;;14.65;7.03;;;;;;;;;;5050110;28;20059;-79
2023/10/08 06:44:02;;;;;;;18.40;7.53;;;;;;;;;;5047963;28;20024;-77
2023/10/08 06:46:29;;;;;;;14.40;7.00;;;;;;;;;;5059070;28;20032;-77
2023/10/08 06:48:54;;;;;;;15.80;7.05;;;;;;;;;;5052821;28;20052;-77
2023/10/08 06:51:19;;;;;;;12.80;6.97;;;;;;;;;;5053407;28;20211;-80
2023/10/08 06:53:47;;;;;;;14.02;7.40;;;;;;;;;;5065646;28;20048;-77
2023/10/08 06:56:16;;;;;;;11.55;7.18;;;;;;;;;;5063720;28;20055;-80
2023/10/08 06:58:48;;;;;;;14.35;7.30;;;;;;;;;;5066107;28;20081;-76
2023/10/08 07:01:20;;;;;;;14.35;7.30;;;;;;;;;;5065881;28;20036;-79
2023/10/08 07:03:49;;;;;;;12.55;6.90;;;;;;;;;;5072304;28;20248;-77
2023/10/08 07:06:25;;;;;;;12.57;7.20;;;;;;;;;;5058886;28;20039;-76
2023/10/08 07:08:55;;;;;;;12.43;7.18;;;;;;;;;;5049081;28;20021;-76
2023/10/08 07:11:21;;;;;;;12.48;6.70;;;;;;;;;;5059275;28;20017;-76
2023/10/08 07:13:47;;;;;;;16.48;7.68;;;;;;;;;;5040089;28;20240;-76
2023/10/08 07:16:17;;;;;;;17.20;7.07;;;;;;;;;;5059961;28;20024;-79
2023/10/08 07:18:48;;;;;;;12.13;7.22;;;;;;;;;;5067751;28;20387;-76
2023/10/08 07:21:13;;;;;;;12.40;7.15;;;;;;;;;;5060755;28;20028;-79
2023/10/08 07:23:56;;;;;;;14.98;7.00;;;;;;;;;;5060783;28;20036;-75
2023/10/08 07:26:25;;;;;;;14.38;7.07;;;;;;;;;;5067630;28;20024;-76
2023/10/08 07:28:52;;;;;;;13.15;7.20;;;;;;;;;;5056580;28;20728;-76
2023/10/08 07:31:22;;;;;;;11.52;6.97;;;;;;;;;;5054420;28;20033;-79
2023/10/08 07:36:54;;;;;;;12.52;6.97;;;;;;;;;;5025969;28;20053;-76
2023/10/08 07:41:58;;;;;;;13.25;7.68;;;;;;;;;;5043232;28;20028;-80
2023/10/08 07:44:29;;;;;;;17.83;8.00;;;;;;;;;;5050504;28;20040;-80
2023/10/08 07:46:55;;;;;;;15.50;7.90;;;;;;;;;;5049419;28;20028;-79
2023/10/08 07:49:23;;;;;;;18.48;8.20;;;;;;;;;;5048908;28;20068;-79
2023/10/08 07:51:52;;;;;;;14.75;7.82;;;;;;;;;;5047841;28;20059;-75
2023/10/08 07:54:29;;;;;;;15.57;7.95;;;;;;;;;;5051764;28;20111;-79
2023/10/08 07:57:18;;;;;;;14.50;7.57;;;;;;;;;;5038137;28;20032;-79
2023/10/08 07:59:46;;;;;;;14.52;7.50;;;;;;;;;;5042135;28;20628;-76
2023/10/08 08:02:14;;;;;;;13.73;7.40;;;;;;;;;;5047112;28;20020;-80
2023/10/08 08:04:45;;;;;;;16.23;7.13;;;;;;;;;;5051474;28;20111;-76
2023/10/08 08:07:15;;;;;;;12.85;7.10;;;;;;;;;;5047493;28;20116;-79
2023/10/08 08:09:51;;;;;;;12.43;6.57;;;;;;;;;;5047519;28;20056;-76
2023/10/08 08:12:19;;;;;;;11.60;6.65;;;;;;;;;;5048564;28;20017;-79
2023/10/08 08:14:45;;;;;;;13.32;6.68;;;;;;;;;;5048560;28;20013;-76
2023/10/08 08:17:13;;;;;;;11.23;6.45;;;;;;;;;;5062147;28;20093;-80
2023/10/08 08:19:51;;;;;;;11.73;6.63;;;;;;;;;;5053168;28;20051;-76
2023/10/08 08:22:21;;;;;;;12.70;6.90;;;;;;;;;;5050291;28;20078;-78
2023/10/08 08:25:06;;;;;;;13.52;6.95;;;;;;;;;;5040694;28;20020;-76
2023/10/08 08:27:31;;;;;;;15.18;6.60;;;;;;;;;;5053620;28;20060;-76
2023/10/08 08:30:09;;;;;;;13.07;6.72;;;;;;;;;;5049590;28;20060;-78
2023/10/08 08:32:39;;;;;;;14.32;7.70;;;;;;;;;;5045478;28;20831;-80
2023/10/08 08:35:07;;;;;;;13.00;6.97;;;;;;;;;;5049035;28;20025;-76
2023/10/08 08:37:35;;;;;;;12.10;7.18;;;;;;;;;;5050321;28;20044;-79
2023/10/08 08:40:07;;;;;;;15.18;7.60;;;;;;;;;;5049481;28;20447;-79
2023/10/08 08:42:35;;;;;;;12.93;6.90;;;;;;;;;;5036768;28;20104;-76
2023/10/08 08:45:03;;;;;;;13.10;7.45;;;;;;;;;;5035489;28;20784;-79
2023/10/08 08:47:30;;;;;;;13.82;7.20;;;;;;;;;;5050270;28;20099;-77
2023/10/08 08:50:00;;;;;;;11.90;6.68;;;;;;;;;;5046399;28;20041;-80
2023/10/08 08:52:25;;;;;;;14.48;7.30;;;;;;;;;;5047367;28;20078;-79
2023/10/08 08:54:51;;;;;;;16.52;7.22;;;;;;;;;;5044401;28;20029;-76
2023/10/08 08:57:18;;;;;;;13.02;6.90;;;;;;;;;;5050173;28;20077;-77
2023/10/08 08:59:52;;;;;;;12.57;6.68;;;;;;;;;;5054594;28;20385;-76
2023/10/08 09:02:18;;;;;;;13.63;6.80;;;;;;;;;;5049808;28;20054;-76
2023/10/08 09:04:45;;;;;;;11.32;6.80;;;;;;;;;;5056147;28;20032;-76
2023/10/08 09:07:12;;;;;;;12.27;6.38;;;;;;;;;;5046907;28;20028;-80
2023/10/08 09:09:39;;;;;;;13.50;6.50;;;;;;;;;;5042374;28;20020;-76
2023/10/08 09:12:05;;;;;;;13.65;6.63;;;;;;;;;;5041115;28;20078;-77
2023/10/08 09:14:33;;;;;;;12.05;6.32;;;;;;;;;;5052476;28;20032;-77
2023/10/08 09:17:00;;;;;;;12.65;6.20;;;;;;;;;;5047911;28;20103;-79
2023/10/08 09:19:26;;;;;;;11.13;6.40;;;;;;;;;;5049728;28;20738;-79
2023/10/08 09:22:12;;;;;;;15.70;6.40;;;;;;;;;;5046592;28;20028;-76
2023/10/08 09:24:42;;;;;;;10.77;6.32;;;;;;;;;;5049344;28;20036;-79
2023/10/08 09:27:13;;;;;;;11.50;5.97;;;;;;;;;;5045796;28;20032;-77
2023/10/08 09:29:40;;;;;;;12.52;6.38;;;;;;;;;;5047407;28;20082;-78
2023/10/08 09:32:07;;;;;;;11.55;6.40;;;;;;;;;;5055069;28;20102;-79
2023/10/08 09:34:33;;;;;;;12.32;6.18;;;;;;;;;;5047597;28;20036;-80
2023/10/08 09:37:00;;;;;;;16.25;6.30;;;;;;;;;;5045308;28;20028;-78
2023/10/08 09:39:28;;;;;;;11.45;6.00;;;;;;;;;;5048663;28;20020;-80
2023/10/08 09:41:57;;;;;;;13.20;6.10;;;;;;;;;;5032071;28;20025;-79
2023/10/08 09:44:24;;;;;;;14.35;6.15;;;;;;;;;;5042880;28;20040;-80
2023/10/08 09:47:04;;;;;;;10.88;6.25;;;;;;;;;;5041940;28;20081;-77
2023/10/08 09:49:44;;;;;;;11.88;6.05;;;;;;;;;;5050289;28;20044;-81
2023/10/08 09:52:10;;;;;;;9.82;5.45;;;;;;;;;;5046762;28;20020;-79
2023/10/08 09:54:53;;;;;;;10.95;5.40;;;;;;;;;;5046587;28;20036;-76
2023/10/08 09:57:21;;;;;;;9.88;5.20;;;;;;;;;;5048488;28;20047;-80
2023/10/08 09:59:48;;;;;;;9.80;5.20;;;;;;;;;;5053267;28;20069;-76
2023/10/08 10:02:15;;;;;;;14.60;5.18;;;;;;;;;;5046439;28;20115;-80
2023/10/08 10:04:44;;;;;;;9.00;4.88;;;;;;;;;;5041768;28;20078;-76
2023/10/08 10:07:16;;;;;;;17.67;4.75;;;;;;;;;;5042420;28;20714;-80
2023/10/08 10:09:46;;;;;;;10.27;4.60;;;;;;;;;;5047128;28;20116;-76
2023/10/08 10:12:12;;;;;;;7.35;4.22;;;;;;;;;;5040164;28;20047;-76
2023/10/08 10:14:42;;;;;;;8.15;4.30;;;;;;;;;;5040540;28;20060;-76
2023/10/08 10:17:22;;;;;;;7.45;3.72;;;;;;;;;;5049467;28;20111;-79
2023/10/08 10:19:59;;;;;;;7.95;3.70;;;;;;;;;;5035898;28;20074;-75
2023/10/08 10:22:29;;;;;;;10.18;4.22;;;;;;;;;;5051950;28;20025;-79
2023/10/08 10:24:57;;;;;;;10.77;3.80;;;;;;;;;;5047047;28;20095;-75
2023/10/08 10:27:22;;;;;;;9.80;3.80;;;;;;;;;;5042491;28;20058;-80
2023/10/08 10:29:48;;;;;;;6.60;3.72;;;;;;;;;;5046128;28;20032;-76
2023/10/08 10:32:15;;;;;;;9.40;3.85;;;;;;;;;;5050127;28;20035;-77
2023/10/08 10:34:42;;;;;;;7.43;3.72;;;;;;;;;;5033670;28;20435;-76
2023/10/08 10:37:20;;;;;;;5.80;3.50;;;;;;;;;;5046282;28;20043;-75
2023/10/08 10:39:58;;;;;;;7.90;4.13;;;;;;;;;;5043477;28;20043;-76
2023/10/08 10:42:24;;;;;;;7.35;3.47;;;;;;;;;;5042337;28;20845;-76
2023/10/08 10:44:50;;;;;;;10.23;3.55;;;;;;;;;;5040863;28;20032;-76
2023/10/08 10:52:31;;;;;;;7.75;3.55;;;;;;;;;;5045953;28;20039;-76
2023/10/08 10:57:42;;;;;;;10.70;3.50;;;;;;;;;;5044923;28;20017;-75
2023/10/08 11:02:56;;;;;;;8.00;3.28;;;;;;;;;;5054831;28;20028;-76
2023/10/08 11:05:28;;;;;;;8.65;3.53;;;;;;;;;;5059879;28;20032;-77
2023/10/08 11:07:58;;;;;;;6.45;3.20;;;;;;;;;;5051534;28;20027;-77
2023/10/08 11:10:24;;;;;;;7.38;3.20;;;;;;;;;;5059093;28;20025;-75
2023/10/08 11:12:53;;;;;;;6.60;3.30;;;;;;;;;;5055050;28;20108;-75
2023/10/08 11:15:18;;;;;;;7.38;3.60;;;;;;;;;;5054984;28;20308;-77
2023/10/08 11:17:47;;;;;;;6.28;3.25;;;;;;;;;;5055057;28;20036;-74
2023/10/08 11:20:25;;;;;;;5.15;3.10;;;;;;;;;;5042037;28;20036;-74
2023/10/08 11:22:53;;;;;;;8.02;3.83;;;;;;;;;;5060674;28;20037;-74
2023/10/08 11:25:30;;;;;;;9.57;3.60;;;;;;;;;;5061156;28;20028;-74
2023/10/08 11:28:08;;;;;;;10.30;3.30;;;;;;;;;;5050155;28;20040;-76
2023/10/08 11:30:35;;;;;;;7.10;3.47;;;;;;;;;;5056014;28;20067;-79
2023/10/08 11:33:00;;;;;;;9.15;4.03;;;;;;;;;;5064503;28;20044;-77
2023/10/08 11:35:33;;;;;;;6.10;3.30;;;;;;;;;;5063350;28;20025;-83
2023/10/08 11:38:01;;;;;;;6.63;3.40;;;;;;;;;;5058063;28;20035;-79
2023/10/08 11:40:46;;;;;;;8.25;3.63;;;;;;;;;;5058695;28;20040;-83
2023/10/08 11:43:15;;;;;;;;;;;;;;;;;;5059703;28;20052;-79
2023/10/08 11:45:48;;;;;;;7.18;3.28;;;;;;;;;;5057149;28;19944;-75
2023/10/08 11:48:17;;;;;;;7.82;3.55;;;;;;;;;;5064230;28;20071;-81
2023/10/08 11:50:43;;;;;;;5.97;3.50;;;;;;;;;;5057661;28;20431;-75
2023/10/08 11:53:09;;;;;;;8.13;3.80;;;;;;;;;;5057260;28;20096;-83
2023/10/08 11:55:36;;;;;;;7.53;3.70;;;;;;;;;;5067058;28;20033;-79
2023/10/08 11:58:12;;;;;;;5.72;3.33;;;;;;;;;;5060637;28;20024;-81
2023/10/08 12:00:45;;;;;;;6.55;3.60;;;;;;;;;;5056095;28;20020;-81
2023/10/08 12:03:11;;;;;;;6.90;3.65;;;;;;;;;;5059598;28;20336;-85
2023/10/08 12:05:43;;;;;;;8.68;3.72;;;;;;;;;;5059769;28;20028;-75
2023/10/08 12:08:09;;;;;;;6.07;3.50;;;;;;;;;;5051988;28;20499;-82
2023/10/08 12:10:34;;;;;;;6.35;3.50;;;;;;;;;;5060020;28;20035;-81
2023/10/08 12:13:00;;;;;;;6.90;3.20;;;;;;;;;;5057648;28;20498;-82
2023/10/08 12:15:34;;;;;;;7.40;3.42;;;;;;;;;;5055067;28;20060;-78
2023/10/08 12:18:11;;;;;;;7.10;3.50;;;;;;;;;;5051568;28;20058;-76
2023/10/08 12:20:37;;;;;;;7.53;3.45;;;;;;;;;;5053739;28;20336;-77
2023/10/08 12:23:10;;;;;;;7.72;3.47;;;;;;;;;;5045963;28;20110;-77
2023/10/08 12:25:37;;;;;;;5.65;3.70;;;;;;;;;;5057333;28;20020;-78
2023/10/08 12:28:04;;;;;;;7.05;3.28;;;;;;;;;;5061439;28;20040;-85
2023/10/08 12:30:41;;;;;;;6.03;3.47;;;;;;;;;;5060015;28;20032;-77
2023/10/08 12:33:07;;;;;;;7.47;3.50;;;;;;;;;;5058198;28;20024;-84
2023/10/08 12:35:32;;;;;;;7.57;3.22;;;;;;;;;;5058104;28;20067;-84
2023/10/08 12:37:57;;;;;;;6.63;3.20;;;;;;;;;;5059879;28;20025;-85
2023/10/08 12:40:23;;;;;;;8.15;2.88;;;;;;;;;;5050864;28;20078;-79
2023/10/08 12:42:52;;;;;;;8.65;3.20;;;;;;;;;;5055302;28;20033;-75
2023/10/08 12:45:20;;;;;;;9.18;3.53;;;;;;;;;;5048408;28;20060;-83
2023/10/08 12:47:52;;;;;;;6.22;3.10;;;;;;;;;;5061609;28;20035;-74
2023/10/08 12:50:42;;;;;;;7.05;3.10;;;;;;;;;;5058501;28;20059;-84
2023/10/08 12:53:11;;;;;;;7.70;3.17;;;;;;;;;;5049857;28;20395;-76
2023/10/08 12:55:39;;;;;;;7.13;3.38;;;;;;;;;;5049318;28;20410;-75
2023/10/08 12:58:09;;;;;;;10.10;3.00;;;;;;;;;;5051474;28;20028;-75
2023/10/08 13:00:37;;;;;;;5.80;2.88;;;;;;;;;;5059053;28;20039;-75
2023/10/08 13:03:05;;;;;;;8.30;3.30;;;;;;;;;;5058425;28;20458;-77
2023/10/08 13:05:33;;;;;;;6.03;2.65;;;;;;;;;;5054101;28;20411;-83
2023/10/08 13:08:03;;;;;;;7.47;3.13;;;;;;;;;;5049366;28;20025;-81
2023/10/08 13:10:31;;;;;;;5.97;3.20;;;;;;;;;;5052943;28;20024;-83
2023/10/08 13:12:56;;;;;;;7.25;3.08;;;;;;;;;;5047638;28;20104;-77
2023/10/08 13:15:25;;;;;;;6.32;2.88;;;;;;;;;;5055120;28;20028;-82
2023/10/08 13:17:51;;;;;;;7.10;3.00;;;;;;;;;;5052309;28;20021;-75
2023/10/08 13:20:17;;;;;;;7.00;2.70;;;;;;;;;;5058518;28;20016;-77
2023/10/08 13:22:43;;;;;;;7.05;3.05;;;;;;;;;;5061883;28;20087;-74
2023/10/08 13:25:09;;;;;;;16.10;3.00;;;;;;;;;;5053992;28;20511;-81
2023/10/08 13:27:38;;;;;;;5.03;2.70;;;;;;;;;;5062769;28;20028;-82
2023/10/08 13:30:08;;;;;;;6.60;2.70;;;;;;;;;;5050596;28;20044;-76
2023/10/08 13:32:36;;;;;;;6.38;2.75;;;;;;;;;;5059720;28;20038;-76
2023/10/08 13:35:04;;;;;;;6.38;2.95;;;;;;;;;;5051616;28;20028;-82
2023/10/08 13:37:31;;;;;;;7.38;2.80;;;;;;;;;;5057499;28;20039;-76
2023/10/08 13:39:56;;;;;;;5.28;2.50;;;;;;;;;;5054233;28;20520;-83
2023/10/08 13:42:22;;;;;;;8.00;2.92;;;;;;;;;;5054845;28;20036;-82
2023/10/08 13:44:48;;;;;;;6.63;2.70;;;;;;;;;;5049943;28;20310;-76
2023/10/08 13:47:15;;;;;;;6.97;3.00;;;;;;;;;;5051015;28;20048;-76
2023/10/08 13:49:42;;;;;;;6.25;2.72;;;;;;;;;;5042611;28;20086;-80
2023/10/08 13:52:08;;;;;;;17.20;3.20;;;;;;;;;;5053034;28;20028;-84
2023/10/08 13:54:39;;;;;;;5.97;2.63;;;;;;;;;;5055609;28;20502;-77
2023/10/08 13:57:06;;;;;;;5.45;2.58;;;;;;;;;;5057907;28;20048;-77
2023/10/08 13:59:32;;;;;;;5.93;2.50;;;;;;;;;;5058752;28;20208;-82
2023/10/08 14:01:58;;;;;;;5.78;2.70;;;;;;;;;;5048801;28;20317;-83
2023/10/08 14:04:30;;;;;;;5.93;2.78;;;;;;;;;;5051220;28;20045;-85
2023/10/08 14:06:58;;;;;;;7.07;2.80;;;;;;;;;;5043670;28;20375;-76
2023/10/08 14:09:36;;;;;;;8.52;2.72;;;;;;;;;;5057905;28;20039;-85
2023/10/08 14:12:02;;;;;;;13.57;3.00;;;;;;;;;;5040640;28;20031;-77
2023/10/08 14:14:33;;;;;;;11.57;2.97;;;;;;;;;;5044469;28;20052;-79
2023/10/08 14:17:08;;;;;;;9.55;2.50;;;;;;;;;;5053564;28;20082;-84
2023/10/08 14:19:39;;;;;;;8.57;3.00;;;;;;;;;;5053405;28;20103;-83
2023/10/08 14:22:08;;;;;;;6.80;2.70;;;;;;;;;;5052109;28;20146;-78
2023/10/08 14:24:37;;;;;;;10.95;2.97;;;;;;;;;;5048851;28;20031;-86
2023/10/08 14:27:09;;;;;;;5.55;2.80;;;;;;;;;;5044843;28;20032;-77
2023/10/08 14:29:40;;;;;;;9.18;3.03;;;;;;;;;;5041772;28;20024;-75
2023/10/08 14:32:08;;;;;;;7.30;2.92;;;;;;;;;;5027500;28;20017;-74
2023/10/08 14:42:55;;;;;;;11.48;3.00;;;;;;;;;;5036940;28;20073;-77
2023/10/08 14:45:22;;;;;;;9.45;3.15;;;;;;;;;;5030337;28;20152;-76
2023/10/08 14:47:48;;;;;;;8.00;3.15;;;;;;;;;;5059357;28;20020;-77
2023/10/08 14:50:16;;;;;;;6.43;2.92;;;;;;;;;;5058991;28;20096;-87
2023/10/08 14:52:45;;;;;;;7.45;3.17;;;;;;;;;;5063968;28;20036;-77
2023/10/08 14:55:13;;;;;;;8.80;3.08;;;;;;;;;;5056082;28;20048;-83
2023/10/08 14:57:39;;;;;;;6.28;3.10;;;;;;;;;;5051101;28;20198;-79
2023/10/08 15:00:06;;;;;;;8.65;3.33;;;;;;;;;;5053709;28;20128;-80
2023/10/08 15:02:33;;;;;;;12.90;3.30;;;;;;;;;;5065884;28;20021;-78
2023/10/08 15:05:00;;;;;;;6.30;2.97;;;;;;;;;;5055926;28;20024;-83
2023/10/08 15:07:27;;;;;;;8.60;2.92;;;;;;;;;;5056770;28;20024;-86
2023/10/08 15:09:55;;;;;;;10.63;3.00;;;;;;;;;;5065854;28;20406;-79
2023/10/08 15:12:21;;;;;;;11.63;3.33;;;;;;;;;;5056173;28;20538;-79
2023/10/08 15:14:50;;;;;;;8.80;3.58;;;;;;;;;;5039671;28;20028;-79
2023/10/08 15:17:17;;;;;;;7.97;3.17;;;;;;;;;;5062776;28;20048;-79
2023/10/08 15:19:42;;;;;;;11.02;3.25;;;;;;;;;;5059292;28;20015;-77
2023/10/08 15:22:08;;;;;;;7.78;3.25;;;;;;;;;;5063607;28;20029;-86
2023/10/08 15:24:36;;;;;;;7.47;3.10;;;;;;;;;;5062927;28;20027;-78
2023/10/08 15:27:04;;;;;;;8.57;3.20;;;;;;;;;;5056215;28;20099;-78
2023/10/08 15:29:29;;;;;;;12.38;3.30;;;;;;;;;;5061292;28;20021;-78
2023/10/08 15:31:56;;;;;;;8.85;3.20;;;;;;;;;;5046543;28;20032;-78
2023/10/08 15:34:23;;;;;;;10.25;3.85;;;;;;;;;;5062546;28;20268;-78
2023/10/08 15:36:52;;;;;;;13.48;4.32;;;;;;;;;;5056129;28;20051;-79
2023/10/08 15:39:24;;;;;;;9.55;3.13;;;;;;;;;;5053296;28;20024;-78
2023/10/08 15:41:50;;;;;;;9.88;3.78;;;;;;;;;;5064912;28;20096;-78
2023/10/08 15:44:22;;;;;;;10.57;3.75;;;;;;;;;;5064618;28;20054;-79
2023/10/08 15:46:49;;;;;;;10.02;3.67;;;;;;;;;;5058399;28;20312;-78
2023/10/08 15:49:14;;;;;;;16.63;3.63;;;;;;;;;;5055808;28;20328;-77
2023/10/08 15:51:40;;;;;;;13.05;3.70;;;;;;;;;;5059658;28;20036;-77
2023/10/08 15:54:05;;;;;;;12.18;3.38;;;;;;;;;;5060939;28;20306;-76
2023/10/08 15:56:31;;;;;;;9.65;3.40;;;;;;;;;;5067385;28;20028;-76
2023/10/08 15:58:57;;;;;;;12.15;3.80;;;;;;;;;;5054643;28;20543;-76
2023/10/08 16:01:23;;;;;;;8.82;3.85;;;;;;;;;;5079425;28;20024;-78